Flight Track Log - Related Links

Times and Time Zones

All times are in EDT time to prevent confusion due to time zone crossing. See the GJS3621 flight status page for this flight to view local times or setup timezone preferences in your user account.

Time Position Orientation Groundspeed Altitude Reporting Facility
EDT Latitude Longitude Course Direction KTS MPH feet Rate Location/Type
Sun 04:15:24 PM 35.8653 -78.8133 229° Southwest 158 182 1,600  Level Washington Center
Sun 04:16:06 PM 35.8417 -78.8464 229° Southwest 192 221 2,500 1,806 Climbing Washington Center
Sun 04:17:07 PM 35.8350 -78.9228 264° West 243 280 4,700 2,250 Climbing Washington Center
Sun 04:18:14 PM 35.8344 -79.0133 270° West 249 287 7,300 2,438 Climbing Washington Center
Sun 04:19:15 PM 35.8364 -79.1156 271° West 272 313 9,900 1,728 Climbing Washington Center
Sun 04:20:19 PM 35.8361 -79.2211 270° West 320 368 10,900 1,488 Climbing Washington Center
Sun 04:21:20 PM 35.8342 -79.3447 269° West 335 386 13,000 1,920 Climbing Washington Center
Sun 04:22:24 PM 35.8225 -79.4683 263° West 351 404 14,900 1,694 Climbing Washington Center
Sun 04:23:24 PM 35.8092 -79.5894 262° West 355 409 16,500 1,488 Climbing Washington Center
Sun 04:24:25 PM 35.7875 -79.7122 258° West 363 418 17,900 1,448 Climbing Washington Center
Sun 04:25:20 PM 35.7653 -79.8364 258° West 370 426 19,300 1,409 Climbing Atlanta Center
Sun 04:26:20 PM 35.7422 -79.9606 257° West 377 434 20,600 1,300 Climbing Atlanta Center
Sun 04:27:20 PM 35.7194 -80.0947 258° West 382 440 21,900 1,250 Climbing Atlanta Center
Sun 04:28:20 PM 35.6986 -80.2233 259° West 388 447 23,100 1,150 Climbing Atlanta Center
Sun 04:29:20 PM 35.6772 -80.3394 257° West 393 452 24,200 1,150 Climbing Atlanta Center
Sun 04:30:20 PM 35.6769 -80.4750 270° West 393 452 25,400 1,150 Climbing Atlanta Center
Sun 04:31:20 PM 35.7531 -80.5792 312° West 374 430 26,500 1,150 Climbing Atlanta Center
Sun 04:32:20 PM 35.8328 -80.6783 315° West 387 445 27,700 1,000 Climbing Atlanta Center
Sun 04:33:20 PM 35.9192 -80.7797 316° Northwest 402 463 28,500 800 Climbing Atlanta Center
Sun 04:34:20 PM 36.0031 -80.8817 316° Northwest 415 478 29,300 800 Climbing Atlanta Center
Sun 04:35:20 PM 36.0850 -80.9839 315° West 420 483 30,100 800 Climbing Atlanta Center
Sun 04:36:20 PM 36.1708 -81.0911 315° West 425 489 30,900 700 Climbing Atlanta Center
Sun 04:37:20 PM 36.2547 -81.1961 315° West 425 489 31,500 750 Climbing Atlanta Center
Sun 04:38:20 PM 36.3428 -81.3014 316° Northwest 425 489 32,400 850 Climbing Atlanta Center
Sun 04:39:20 PM 36.4283 -81.4094 315° West 431 496 33,200 736 Climbing Atlanta Center
Sun 04:41:03 PM 36.5758 -81.5950 315° West 436 502 34,400 691 Climbing Indianapolis Center
Sun 04:42:05 PM 36.6617 -81.7025 315° West 436 502 35,100 683 Climbing Indianapolis Center
Sun 04:43:06 PM 36.7478 -81.8106 315° West 436 502 35,800 443 Climbing Indianapolis Center
Sun 04:44:07 PM 36.8472 -81.9372 314° West 436 502 36,000 98 Climbing Indianapolis Center
Sun 04:45:09 PM 36.9342 -82.0467 315° West 440 506 36,000  Level Indianapolis Center
Sun 04:46:10 PM 37.0200 -82.1553 315° West 441 507 36,000  Level Indianapolis Center
Sun 04:47:11 PM 37.1033 -82.2614 315° West 436 502 36,000  Level Indianapolis Center
Sun 04:48:13 PM 37.1864 -82.3672 315° West 432 497 36,000  Level Indianapolis Center
Sun 04:49:14 PM 37.2683 -82.4739 314° West 431 496 36,000  Level Indianapolis Center
Sun 04:50:15 PM 37.3514 -82.5811 314° West 431 496 36,000  Level Indianapolis Center
Sun 04:51:17 PM 37.4339 -82.6897 314° West 431 496 36,000  Level Indianapolis Center
Sun 04:52:18 PM 37.5189 -82.8272 308° West 430 495 36,000  Level Indianapolis Center
Sun 04:53:19 PM 37.5917 -82.9442 308° West 429 494 36,000  Level Indianapolis Center
Sun 04:54:20 PM 37.6672 -83.0594 310° West 429 494 36,000  Level Indianapolis Center
Sun 04:55:21 PM 37.7519 -83.1658 315° West 433 498 36,000  Level Indianapolis Center
Sun 04:56:22 PM 37.8367 -83.2747 315° West 433 498 36,000  Level Indianapolis Center
Sun 04:57:24 PM 37.9228 -83.3811 316° Northwest 433 498 36,000  Level Indianapolis Center
Sun 04:58:25 PM 38.0072 -83.4864 316° Northwest 431 496 36,000  Level Indianapolis Center
Sun 04:59:26 PM 38.0911 -83.5961 314° West 429 494 36,000  Level Indianapolis Center
Sun 05:00:27 PM 38.1747 -83.6989 316° Northwest 425 489 36,000  Level Indianapolis Center
Sun 05:01:28 PM 38.2714 -83.8236 315° West 425 489 36,000  Level Indianapolis Center
Sun 05:02:29 PM 38.3614 -83.9211 320° Northwest 425 489 36,000  Level Indianapolis Center
Sun 05:03:30 PM 38.4656 -84.0006 329° Northwest 432 497 36,000  Level Indianapolis Center
Sun 05:04:31 PM 38.5675 -84.0836 328° Northwest 432 497 36,000  Level Indianapolis Center
Sun 05:05:33 PM 38.6686 -84.1639 328° Northwest 432 497 36,000  Level Indianapolis Center
Sun 05:06:34 PM 38.7694 -84.2456 328° Northwest 431 496 36,000  Level Indianapolis Center
Sun 05:07:35 PM 38.8703 -84.3272 328° Northwest 431 496 36,000 -689 Level Indianapolis Center
Sun 05:08:36 PM 38.9742 -84.4106 328° Northwest 432 497 34,600 -1,525 Descending Indianapolis Center
Sun 05:09:37 PM 39.0767 -84.4950 327° Northwest 435 501 32,900 -1,918 Descending Indianapolis Center
Sun 05:10:38 PM 39.1753 -84.5767 327° Northwest 429 494 30,700 -1,561 Descending Indianapolis Center
Sun 05:11:40 PM 39.2742 -84.6567 328° Northwest 424 488 29,700 -976 Descending Indianapolis Center
Sun 05:12:41 PM 39.3706 -84.7353 328° Northwest 415 478 28,700 -836 Descending Indianapolis Center
Sun 05:13:42 PM 39.4639 -84.8122 328° Northwest 404 465 28,000 -344 Descending Indianapolis Center
Sun 05:14:43 PM 39.5636 -84.8947 327° Northwest 389 448 28,000  Level Indianapolis Center
Sun 05:15:44 PM 39.6525 -84.9683 327° Northwest 386 444 28,000  Level Indianapolis Center
Sun 05:16:45 PM 39.7425 -85.0433 327° Northwest 386 444 28,000 -293 Level Indianapolis Center
Sun 05:17:47 PM 39.8314 -85.1175 327° Northwest 385 443 27,400 -780 Descending Indianapolis Center
Sun 05:18:48 PM 39.9186 -85.1933 326° Northwest 384 442 26,400 -689 Descending Indianapolis Center
Sun 05:19:49 PM 40.0294 -85.2867 327° Northwest 390 449 26,000 -197 Descending Indianapolis Center
Sun 05:20:50 PM 40.1333 -85.3728 328° Northwest 426 490 26,000  Level Indianapolis Center
Sun 05:21:51 PM 40.2364 -85.4594 327° Northwest 440 506 26,000 -244 Level Indianapolis Center
Sun 05:22:53 PM 40.3369 -85.5464 327° Northwest 439 505 25,500 -722 Descending Indianapolis Center
Sun 05:23:39 PM 40.4167 -85.6111 328° Northwest 435 501 24,700 -833 Descending Chicago Center
Sun 05:24:41 PM 40.5194 -85.6861 331° Northwest 429 494 24,000 -341 Descending Chicago Center
Sun 05:25:42 PM 40.6111 -85.7742 324° Northwest 424 488 24,000 -146 Level Chicago Center
Sun 05:26:44 PM 40.6844 -85.9114 305° West 424 488 23,700 -484 Descending Chicago Center
Sun 05:27:46 PM 40.7517 -86.0372 305° West 422 486 23,000 -339 Descending Chicago Center
Sun 05:28:48 PM 40.8208 -86.1658 305° West 428 493 23,000  Level Chicago Center
Sun 05:29:50 PM 40.8919 -86.2981 305° West 438 504 23,000  Level Chicago Center
Sun 05:30:52 PM 40.9631 -86.4308 305° West 439 505 23,000  Level Chicago Center
Sun 05:31:54 PM 41.0344 -86.5639 305° West 441 507 23,000 -1,355 Level Chicago Center
Sun 05:32:56 PM 41.1178 -86.7228 305° West 438 504 20,200 -2,976 Descending Chicago Center
Sun 05:33:57 PM 41.1875 -86.8553 305° West 415 478 16,900 -2,976 Descending Chicago Center
Sun 05:34:59 PM 41.2514 -86.9772 305° West 406 467 14,100 -2,226 Descending Chicago Center
Sun 05:36:01 PM 41.3125 -87.0947 305° West 390 449 12,300 -1,500 Descending Chicago Center
Sun 05:37:03 PM 41.3825 -87.2106 309° West 372 428 11,000 -629 Descending Chicago Center
Sun 05:38:05 PM 41.4461 -87.2889 317° Northwest 305 351 11,000  Level Chicago Center
Sun 05:39:07 PM 41.5108 -87.3656 318° Northwest 292 336 11,000 -339 Level Chicago Center
Sun 05:40:09 PM 41.5781 -87.4250 327° Northwest 292 336 10,300 -1,220 Descending Chicago Center
Sun 05:41:10 PM 41.6461 -87.4864 326° Northwest 276 318 8,500 -1,122 Descending Chicago Center
Sun 05:42:12 PM 41.7042 -87.5467 322° Northwest 269 310 8,000 -726 Descending Chicago Center
Sun 05:43:14 PM 41.7789 -87.5658 349° North 256 295 7,000 -774 Descending Chicago Center
Sun 05:44:16 PM 41.8425 -87.5642 North 231 266 6,400 -1,161 Descending Chicago Center
Sun 05:45:18 PM 41.8972 -87.6061 330° Northwest 231 266 4,600 -1,355 Descending Chicago Center
Sun 05:46:20 PM 41.9292 -87.6844 299° West 223 257 3,600 -919 Descending Chicago Center
Sun 05:47:22 PM 41.9556 -87.7522 298° West 208 239 2,700 -878 Descending Chicago Center
Sun 05:48:23 PM 41.9667 -87.8175 283° West 158 182 1,800 -780 Descending Chicago Center
Sun 05:49:25 PM 41.9664 -87.8697 270° West 145 167 1,100 -484 Descending Chicago Center
Sun 05:50:27 PM 41.9664 -87.9269 270° West 144 166 800 -290 Descending Chicago Center

Login

Don't have an account? Register now (free) for customized features, flight alerts, and more!